Langham, Canada
Current Conditions -  °F | °C
As of 12:00 AM on Monday 24 Nov 2014 (Local Time) from CYXE Reporting Station
Scattered Clouds Scattered Clouds  
Wind Chill:   Ceiling: Unl
Heat Index:   Visibility: 15mi
Dew Point:   Wind: 3mph
Humidity: 92%   Direction: 280°W
Pressure: 29.86"   Gusts: NA
Location:  52.36°N, 106.96°W
Report Text: CYXE 240600Z 28003KT 15SM FEW010 SCT210 M17/M18 A2986 RMK SC2CI2 SLP154
Loading
Personal Weather Stations






























Interactive Weather Map New forecast layout! Learn more

10-Day Weather Forecast

Advertisements
Track Severe Weather on mobile